Terminal Aerodrome Forecast
Issued by NWS Omaha/Valley, NE

Home | Current Version | Previous Version | Graphics & Text | Print | Product List | Glossary On
Versions: 1 2 3 4 5 6 7 8 9 10 11 12 13 14 15 16 17 18 19 20 21 22 23 24 25 26 27 28 29 30 31 32 33 34 35 36 37 38
834
FTUS43 KOAX 091729
TAFOFK
TAF
KOFK 091729Z 0918/1018 34010KT P6SM SCT250
      TEMPO 0918/0919 BKN025
     FM100000 21010KT P6SM SKC
     FM100800 30012KT P6SM FEW250=

USA.gov is the U.S. government's official web portal to all federal, state and local government web resources and services.